sensor_id;sensor_type;location;lat;lon;timestamp;pressure;altitude;pressure_sealevel;temperature;humidity
46223;BME280;31943;51.410;7.564;2022-12-18T00:00:28;101505.06;;;-6.55;59.82
46223;BME280;31943;51.410;7.564;2022-12-18T00:02:55;101504.16;;;-6.56;59.86
46223;BME280;31943;51.410;7.564;2022-12-18T00:05:20;101504.16;;;-6.56;59.88
46223;BME280;31943;51.410;7.564;2022-12-18T00:07:48;101500.28;;;-6.52;59.75
46223;BME280;31943;51.410;7.564;2022-12-18T00:10:13;101510.31;;;-6.62;59.69
46223;BME280;31943;51.410;7.564;2022-12-18T00:12:39;101520.47;;;-6.62;59.67
46223;BME280;31943;51.410;7.564;2022-12-18T00:15:05;101512.84;;;-6.62;59.83
46223;BME280;31943;51.410;7.564;2022-12-18T00:17:31;101517.00;;;-6.63;59.65
46223;BME280;31943;51.410;7.564;2022-12-18T00:19:56;101503.56;;;-6.62;59.71
46223;BME280;31943;51.410;7.564;2022-12-18T00:22:22;101497.59;;;-6.62;59.51
46223;BME280;31943;51.410;7.564;2022-12-18T00:24:49;101513.28;;;-6.66;59.40
46223;BME280;31943;51.410;7.564;2022-12-18T00:27:14;101517.28;;;-6.68;59.36
46223;BME280;31943;51.410;7.564;2022-12-18T00:29:40;101522.97;;;-6.80;59.16
46223;BME280;31943;51.410;7.564;2022-12-18T00:32:05;101525.91;;;-6.92;59.13
46223;BME280;31943;51.410;7.564;2022-12-18T00:34:31;101519.63;;;-6.96;59.43
46223;BME280;31943;51.410;7.564;2022-12-18T00:36:56;101521.00;;;-6.91;59.41
46223;BME280;31943;51.410;7.564;2022-12-18T00:39:22;101516.22;;;-6.88;59.36
46223;BME280;31943;51.410;7.564;2022-12-18T00:41:49;101514.75;;;-6.86;59.59
46223;BME280;31943;51.410;7.564;2022-12-18T00:44:17;101511.44;;;-6.85;59.24
46223;BME280;31943;51.410;7.564;2022-12-18T00:46:43;101516.53;;;-6.85;59.39
46223;BME280;31943;51.410;7.564;2022-12-18T00:49:09;101522.94;;;-6.88;59.23
46223;BME280;31943;51.410;7.564;2022-12-18T00:51:35;101522.31;;;-6.94;59.23
46223;BME280;31943;51.410;7.564;2022-12-18T00:54:01;101528.28;;;-6.94;59.29
46223;BME280;31943;51.410;7.564;2022-12-18T00:56:26;101533.69;;;-6.91;59.56
46223;BME280;31943;51.410;7.564;2022-12-18T00:58:53;101534.00;;;-6.88;59.08
46223;BME280;31943;51.410;7.564;2022-12-18T01:01:19;101535.78;;;-6.87;59.49
46223;BME280;31943;51.410;7.564;2022-12-18T01:03:44;101525.19;;;-6.91;59.08
46223;BME280;31943;51.410;7.564;2022-12-18T01:06:12;101525.31;;;-6.90;59.36
46223;BME280;31943;51.410;7.564;2022-12-18T01:08:38;101523.69;;;-6.89;59.40
46223;BME280;31943;51.410;7.564;2022-12-18T01:11:07;101527.13;;;-6.89;59.09
46223;BME280;31943;51.410;7.564;2022-12-18T01:13:33;101526.22;;;-6.89;59.43
46223;BME280;31943;51.410;7.564;2022-12-18T01:16:01;101517.13;;;-6.87;59.30
46223;BME280;31943;51.410;7.564;2022-12-18T01:18:27;101513.97;;;-6.85;59.18
46223;BME280;31943;51.410;7.564;2022-12-18T01:20:53;101507.13;;;-6.86;58.96
46223;BME280;31943;51.410;7.564;2022-12-18T01:23:19;101519.66;;;-6.87;58.93
46223;BME280;31943;51.410;7.564;2022-12-18T01:25:46;101518.91;;;-6.86;58.96
46223;BME280;31943;51.410;7.564;2022-12-18T01:28:11;101518.91;;;-6.86;59.09
46223;BME280;31943;51.410;7.564;2022-12-18T01:30:37;101517.41;;;-6.84;59.01
46223;BME280;31943;51.410;7.564;2022-12-18T01:33:05;101518.00;;;-6.87;58.91
46223;BME280;31943;51.410;7.564;2022-12-18T01:35:31;101522.03;;;-6.89;58.76
46223;BME280;31943;51.410;7.564;2022-12-18T01:37:57;101530.38;;;-6.90;58.90
46223;BME280;31943;51.410;7.564;2022-12-18T01:40:22;101533.69;;;-6.91;58.88
46223;BME280;31943;51.410;7.564;2022-12-18T01:42:50;101536.06;;;-6.92;58.81
46223;BME280;31943;51.410;7.564;2022-12-18T01:45:25;101541.44;;;-6.89;58.80
46223;BME280;31943;51.410;7.564;2022-12-18T01:47:53;101543.81;;;-6.91;58.69
46223;BME280;31943;51.410;7.564;2022-12-18T01:50:22;101530.25;;;-6.91;58.87
46223;BME280;31943;51.410;7.564;2022-12-18T01:52:51;101523.53;;;-6.91;58.82
46223;BME280;31943;51.410;7.564;2022-12-18T01:55:19;101521.88;;;-6.90;58.83
46223;BME280;31943;51.410;7.564;2022-12-18T01:57:46;101500.38;;;-6.94;58.71
46223;BME280;31943;51.410;7.564;2022-12-18T02:00:14;101507.97;;;-6.94;58.96
46223;BME280;31943;51.410;7.564;2022-12-18T02:02:41;101513.97;;;-6.93;58.81
46223;BME280;31943;51.410;7.564;2022-12-18T02:05:07;101494.56;;;-6.93;58.74
46223;BME280;31943;51.410;7.564;2022-12-18T02:07:42;101508.13;;;-6.92;58.82
46223;BME280;31943;51.410;7.564;2022-12-18T02:10:15;101510.41;;;-6.96;58.78
46223;BME280;31943;51.410;7.564;2022-12-18T02:12:48;101520.97;;;-7.00;59.01
46223;BME280;31943;51.410;7.564;2022-12-18T02:15:24;101524.25;;;-7.09;58.67
46223;BME280;31943;51.410;7.564;2022-12-18T02:17:55;101526.28;;;-7.14;58.75
46223;BME280;31943;51.410;7.564;2022-12-18T02:20:28;101520.16;;;-7.16;58.84
46223;BME280;31943;51.410;7.564;2022-12-18T02:23:17;101520.16;;;-7.16;59.01
46223;BME280;31943;51.410;7.564;2022-12-18T02:26:15;101513.94;;;-7.11;59.04
46223;BME280;31943;51.410;7.564;2022-12-18T02:28:46;101509.59;;;-7.12;59.03
46223;BME280;31943;51.410;7.564;2022-12-18T02:31:18;101509.28;;;-7.15;59.16
46223;BME280;31943;51.410;7.564;2022-12-18T02:33:45;101511.50;;;-7.18;58.99
46223;BME280;31943;51.410;7.564;2022-12-18T02:36:12;101515.97;;;-7.16;59.14
46223;BME280;31943;51.410;7.564;2022-12-18T02:38:41;101504.94;;;-7.16;59.09
46223;BME280;31943;51.410;7.564;2022-12-18T02:41:07;101499.88;;;-7.16;59.02
46223;BME280;31943;51.410;7.564;2022-12-18T02:43:35;101484.81;;;-7.14;58.89
46223;BME280;31943;51.410;7.564;2022-12-18T02:46:23;101491.66;;;-7.13;58.77
46223;BME280;31943;51.410;7.564;2022-12-18T02:48:52;101484.81;;;-7.14;58.90
46223;BME280;31943;51.410;7.564;2022-12-18T02:51:24;101484.06;;;-7.13;58.91
46223;BME280;31943;51.410;7.564;2022-12-18T02:53:57;101492.41;;;-7.14;58.85
46223;BME280;31943;51.410;7.564;2022-12-18T02:56:29;101493.31;;;-7.14;59.09
46223;BME280;31943;51.410;7.564;2022-12-18T02:59:04;101503.63;;;-7.12;58.89
46223;BME280;31943;51.410;7.564;2022-12-18T03:01:35;101504.50;;;-7.12;58.82
46223;BME280;31943;51.410;7.564;2022-12-18T03:04:07;101510.34;;;-7.13;58.72
46223;BME280;31943;51.410;7.564;2022-12-18T03:06:37;101506.88;;;-7.13;58.79
46223;BME280;31943;51.410;7.564;2022-12-18T03:09:08;101506.75;;;-7.15;58.74
46223;BME280;31943;51.410;7.564;2022-12-18T03:11:37;101506.16;;;-7.12;58.73
46223;BME280;31943;51.410;7.564;2022-12-18T03:14:07;101501.97;;;-7.12;58.73
46223;BME280;31943;51.410;7.564;2022-12-18T03:16:34;101508.84;;;-7.11;58.64
46223;BME280;31943;51.410;7.564;2022-12-18T03:19:03;101510.63;;;-7.10;58.62
46223;BME280;31943;51.410;7.564;2022-12-18T03:21:35;101501.09;;;-7.12;58.55
46223;BME280;31943;51.410;7.564;2022-12-18T03:24:06;101491.25;;;-7.09;58.71
46223;BME280;31943;51.410;7.564;2022-12-18T03:26:35;101499.75;;;-7.09;58.48
46223;BME280;31943;51.410;7.564;2022-12-18T03:29:04;101499.91;;;-7.07;58.66
46223;BME280;31943;51.410;7.564;2022-12-18T03:31:34;101503.50;;;-7.05;58.75
46223;BME280;31943;51.410;7.564;2022-12-18T03:34:09;101499.47;;;-7.03;58.70
46223;BME280;31943;51.410;7.564;2022-12-18T03:36:38;101495.72;;;-7.07;58.62
46223;BME280;31943;51.410;7.564;2022-12-18T03:39:04;101492.31;;;-7.07;58.71
46223;BME280;31943;51.410;7.564;2022-12-18T03:41:31;101483.94;;;-7.06;58.89
46223;BME280;31943;51.410;7.564;2022-12-18T03:44:03;101477.97;;;-7.07;58.75
46223;BME280;31943;51.410;7.564;2022-12-18T03:46:42;101481.22;;;-7.08;58.93
46223;BME280;31943;51.410;7.564;2022-12-18T03:49:16;101472.75;;;-7.08;58.85
46223;BME280;31943;51.410;7.564;2022-12-18T03:51:49;101462.59;;;-7.08;58.72
46223;BME280;31943;51.410;7.564;2022-12-18T03:54:18;101464.41;;;-7.07;58.69
46223;BME280;31943;51.410;7.564;2022-12-18T03:56:47;101470.47;;;-7.14;58.65
46223;BME280;31943;51.410;7.564;2022-12-18T03:59:16;101475.38;;;-7.24;58.73
46223;BME280;31943;51.410;7.564;2022-12-18T04:01:46;101495.00;;;-7.39;58.80
46223;BME280;31943;51.410;7.564;2022-12-18T04:04:13;101495.00;;;-7.48;59.07
46223;BME280;31943;51.410;7.564;2022-12-18T04:06:40;101489.88;;;-7.57;58.94
46223;BME280;31943;51.410;7.564;2022-12-18T04:09:07;101498.94;;;-7.59;59.05
46223;BME280;31943;51.410;7.564;2022-12-18T04:11:33;101491.09;;;-7.53;59.19
46223;BME280;31943;51.410;7.564;2022-12-18T04:13:59;101488.72;;;-7.51;58.89
46223;BME280;31943;51.410;7.564;2022-12-18T04:16:25;101486.63;;;-7.47;59.19
46223;BME280;31943;51.410;7.564;2022-12-18T04:18:53;101493.66;;;-7.44;59.02
46223;BME280;31943;51.410;7.564;2022-12-18T04:21:19;101487.84;;;-7.43;59.06
46223;BME280;31943;51.410;7.564;2022-12-18T04:23:45;101489.81;;;-7.41;59.12
46223;BME280;31943;51.410;7.564;2022-12-18T04:26:10;101490.69;;;-7.40;58.98
46223;BME280;31943;51.410;7.564;2022-12-18T04:28:36;101487.28;;;-7.41;59.19
46223;BME280;31943;51.410;7.564;2022-12-18T04:31:02;101486.34;;;-7.41;59.09
46223;BME280;31943;51.410;7.564;2022-12-18T04:33:27;101488.88;;;-7.41;59.15
46223;BME280;31943;51.410;7.564;2022-12-18T04:35:55;101491.44;;;-7.41;58.83
46223;BME280;31943;51.410;7.564;2022-12-18T04:38:21;101490.53;;;-7.42;59.10
46223;BME280;31943;51.410;7.564;2022-12-18T04:40:46;101484.75;;;-7.41;59.07
46223;BME280;31943;51.410;7.564;2022-12-18T04:43:12;101487.28;;;-7.41;59.20
46223;BME280;31943;51.410;7.564;2022-12-18T04:45:37;101483.69;;;-7.43;59.07
46223;BME280;31943;51.410;7.564;2022-12-18T04:48:03;101486.22;;;-7.43;59.15
46223;BME280;31943;51.410;7.564;2022-12-18T04:50:29;101479.34;;;-7.44;58.96
46223;BME280;31943;51.410;7.564;2022-12-18T04:52:57;101483.69;;;-7.43;58.87
46223;BME280;31943;51.410;7.564;2022-12-18T04:55:24;101473.22;;;-7.46;59.04
46223;BME280;31943;51.410;7.564;2022-12-18T04:57:49;101479.19;;;-7.45;59.15
46223;BME280;31943;51.410;7.564;2022-12-18T05:00:15;101485.47;;;-7.42;58.94
46223;BME280;31943;51.410;7.564;2022-12-18T05:02:41;101491.28;;;-7.43;59.00
46223;BME280;31943;51.410;7.564;2022-12-18T05:05:07;101483.38;;;-7.46;58.92
46223;BME280;31943;51.410;7.564;2022-12-18T05:07:33;101484.22;;;-7.54;58.92
46223;BME280;31943;51.410;7.564;2022-12-18T05:10:00;101471.72;;;-7.52;59.21
46223;BME280;31943;51.410;7.564;2022-12-18T05:12:25;101464.41;;;-7.49;59.27
46223;BME280;31943;51.410;7.564;2022-12-18T05:14:51;101467.69;;;-7.50;59.00
46223;BME280;31943;51.410;7.564;2022-12-18T05:17:17;101464.41;;;-7.49;58.84
46223;BME280;31943;51.410;7.564;2022-12-18T05:19:42;101466.50;;;-7.45;58.94
46223;BME280;31943;51.410;7.564;2022-12-18T05:22:08;101459.06;;;-7.44;58.89
46223;BME280;31943;51.410;7.564;2022-12-18T05:24:34;101451.44;;;-7.44;58.74
46223;BME280;31943;51.410;7.564;2022-12-18T05:27:00;101452.19;;;-7.45;58.64
46223;BME280;31943;51.410;7.564;2022-12-18T05:29:26;101453.81;;;-7.45;58.63
46223;BME280;31943;51.410;7.564;2022-12-18T05:31:52;101452.19;;;-7.45;58.60
46223;BME280;31943;51.410;7.564;2022-12-18T05:34:18;101446.97;;;-7.46;58.70
46223;BME280;31943;51.410;7.564;2022-12-18T05:36:44;101440.25;;;-7.46;58.66
46223;BME280;31943;51.410;7.564;2022-12-18T05:39:09;101436.53;;;-7.49;58.61
46223;BME280;31943;51.410;7.564;2022-12-18T05:41:35;101432.22;;;-7.50;58.53
46223;BME280;31943;51.410;7.564;2022-12-18T05:44:02;101436.94;;;-7.53;58.44
46223;BME280;31943;51.410;7.564;2022-12-18T05:46:28;101439.31;;;-7.64;58.47
46223;BME280;31943;51.410;7.564;2022-12-18T05:48:53;101436.72;;;-7.72;58.70
46223;BME280;31943;51.410;7.564;2022-12-18T05:51:20;101435.81;;;-7.82;58.75
46223;BME280;31943;51.410;7.564;2022-12-18T05:53:46;101439.50;;;-7.87;58.82
46223;BME280;31943;51.410;7.564;2022-12-18T05:56:13;101444.13;;;-7.83;58.99
46223;BME280;31943;51.410;7.564;2022-12-18T05:58:39;101458.47;;;-7.75;59.02
46223;BME280;31943;51.410;7.564;2022-12-18T06:01:10;101459.53;;;-7.72;58.98
46223;BME280;31943;51.410;7.564;2022-12-18T06:03:36;101468.63;;;-7.75;58.98
46223;BME280;31943;51.410;7.564;2022-12-18T06:06:02;101469.53;;;-7.74;58.94
46223;BME280;31943;51.410;7.564;2022-12-18T06:08:28;101470.59;;;-7.72;58.96
46223;BME280;31943;51.410;7.564;2022-12-18T06:10:53;101470.00;;;-7.69;58.77
46223;BME280;31943;51.410;7.564;2022-12-18T06:13:19;101482.03;;;-7.76;58.85
46223;BME280;31943;51.410;7.564;2022-12-18T06:15:45;101481.88;;;-7.77;58.81
46223;BME280;31943;51.410;7.564;2022-12-18T06:18:13;101483.53;;;-7.78;58.87
46223;BME280;31943;51.410;7.564;2022-12-18T06:20:38;101476.34;;;-7.82;59.17
46223;BME280;31943;51.410;7.564;2022-12-18T06:23:04;101479.03;;;-7.80;58.96
46223;BME280;31943;51.410;7.564;2022-12-18T06:25:29;101480.81;;;-7.79;59.24
46223;BME280;31943;51.410;7.564;2022-12-18T06:27:55;101490.22;;;-7.78;59.21
46223;BME280;31943;51.410;7.564;2022-12-18T06:30:21;101497.97;;;-7.77;59.28
46223;BME280;31943;51.410;7.564;2022-12-18T06:32:47;101497.50;;;-7.81;59.19
46223;BME280;31943;51.410;7.564;2022-12-18T06:35:15;101505.13;;;-7.81;59.43
46223;BME280;31943;51.410;7.564;2022-12-18T06:37:40;101499.59;;;-7.86;59.26
46223;BME280;31943;51.410;7.564;2022-12-18T06:40:07;101503.28;;;-7.91;59.23
46223;BME280;31943;51.410;7.564;2022-12-18T06:42:33;101504.16;;;-7.90;59.65
46223;BME280;31943;51.410;7.564;2022-12-18T06:44:58;101500.91;;;-7.89;59.64
46223;BME280;31943;51.410;7.564;2022-12-18T06:47:24;101505.84;;;-7.82;59.77
46223;BME280;31943;51.410;7.564;2022-12-18T06:49:49;101502.75;;;-7.80;59.60
46223;BME280;31943;51.410;7.564;2022-12-18T06:52:16;101492.28;;;-7.83;60.13
46223;BME280;31943;51.410;7.564;2022-12-18T06:54:42;101485.56;;;-7.82;60.12
46223;BME280;31943;51.410;7.564;2022-12-18T06:57:07;101490.34;;;-7.85;60.59
46223;BME280;31943;51.410;7.564;2022-12-18T06:59:33;101493.16;;;-7.82;60.31
46223;BME280;31943;51.410;7.564;2022-12-18T07:01:58;101489.91;;;-7.81;60.80
46223;BME280;31943;51.410;7.564;2022-12-18T07:04:27;101488.16;;;-7.73;60.80
46223;BME280;31943;51.410;7.564;2022-12-18T07:06:53;101483.25;;;-7.72;60.94
46223;BME280;31943;51.410;7.564;2022-12-18T07:09:20;101480.59;;;-7.65;60.99
46223;BME280;31943;51.410;7.564;2022-12-18T07:11:46;101462.75;;;-7.58;61.03
46223;BME280;31943;51.410;7.564;2022-12-18T07:14:11;101460.38;;;-7.56;61.11
46223;BME280;31943;51.410;7.564;2022-12-18T07:16:37;101463.34;;;-7.51;61.21
46223;BME280;31943;51.410;7.564;2022-12-18T07:19:02;101469.94;;;-7.45;61.13
46223;BME280;31943;51.410;7.564;2022-12-18T07:21:28;101476.69;;;-7.37;61.13
46223;BME280;31943;51.410;7.564;2022-12-18T07:23:53;101474.44;;;-7.33;61.09
46223;BME280;31943;51.410;7.564;2022-12-18T07:26:22;101462.97;;;-7.30;61.01
46223;BME280;31943;51.410;7.564;2022-12-18T07:28:47;101462.38;;;-7.27;61.03
46223;BME280;31943;51.410;7.564;2022-12-18T07:31:15;101451.66;;;-7.25;61.15
46223;BME280;31943;51.410;7.564;2022-12-18T07:33:42;101448.97;;;-7.18;61.13
46223;BME280;31943;51.410;7.564;2022-12-18T07:36:09;101451.84;;;-7.14;61.53
46223;BME280;31943;51.410;7.564;2022-12-18T07:38:35;101450.06;;;-7.07;61.22
46223;BME280;31943;51.410;7.564;2022-12-18T07:41:01;101445.31;;;-6.95;61.58
46223;BME280;31943;51.410;7.564;2022-12-18T07:43:28;101435.75;;;-6.80;61.85
46223;BME280;31943;51.410;7.564;2022-12-18T07:45:54;101430.09;;;-6.60;61.88
46223;BME280;31943;51.410;7.564;2022-12-18T07:48:20;101429.06;;;-6.45;62.25
46223;BME280;31943;51.410;7.564;2022-12-18T07:50:45;101436.19;;;-6.32;62.50
46223;BME280;31943;51.410;7.564;2022-12-18T07:53:11;101430.66;;;-6.19;62.76
46223;BME280;31943;51.410;7.564;2022-12-18T07:55:36;101431.97;;;-6.05;62.73
46223;BME280;31943;51.410;7.564;2022-12-18T07:58:02;101436.13;;;-5.97;62.96
46223;BME280;31943;51.410;7.564;2022-12-18T08:00:30;101433.38;;;-5.90;63.42
46223;BME280;31943;51.410;7.564;2022-12-18T08:02:56;101439.78;;;-5.85;63.59
46223;BME280;31943;51.410;7.564;2022-12-18T08:05:22;101436.47;;;-5.75;63.42
46223;BME280;31943;51.410;7.564;2022-12-18T08:07:48;101446.16;;;-5.62;63.73
46223;BME280;31943;51.410;7.564;2022-12-18T08:10:14;101432.03;;;-5.50;63.98
46223;BME280;31943;51.410;7.564;2022-12-18T08:12:40;101426.28;;;-5.39;63.98
46223;BME280;31943;51.410;7.564;2022-12-18T08:15:06;101424.25;;;-5.24;64.26
46223;BME280;31943;51.410;7.564;2022-12-18T08:17:33;101426.91;;;-5.13;64.26
46223;BME280;31943;51.410;7.564;2022-12-18T08:19:59;101418.31;;;-5.05;64.22
46223;BME280;31943;51.410;7.564;2022-12-18T08:22:25;101416.31;;;-4.99;64.07
46223;BME280;31943;51.410;7.564;2022-12-18T08:24:51;101408.94;;;-4.96;64.45
46223;BME280;31943;51.410;7.564;2022-12-18T08:27:16;101401.25;;;-4.87;64.32
46223;BME280;31943;51.410;7.564;2022-12-18T08:29:42;101410.41;;;-4.70;64.27
46223;BME280;31943;51.410;7.564;2022-12-18T08:32:07;101394.56;;;-4.58;64.34
46223;BME280;31943;51.410;7.564;2022-12-18T08:34:35;101393.84;;;-4.46;64.25
46223;BME280;31943;51.410;7.564;2022-12-18T08:37:00;101396.44;;;-4.36;64.10
46223;BME280;31943;51.410;7.564;2022-12-18T08:39:26;101388.84;;;-4.26;64.08
46223;BME280;31943;51.410;7.564;2022-12-18T08:41:52;101379.94;;;-4.21;63.70
46223;BME280;31943;51.410;7.564;2022-12-18T08:44:17;101358.94;;;-4.08;63.84
46223;BME280;31943;51.410;7.564;2022-12-18T08:46:43;101355.06;;;-3.94;63.92
46223;BME280;31943;51.410;7.564;2022-12-18T08:49:10;101363.22;;;-3.88;63.67
46223;BME280;31943;51.410;7.564;2022-12-18T08:51:38;101357.25;;;-3.78;63.38
46223;BME280;31943;51.410;7.564;2022-12-18T08:54:04;101351.28;;;-3.58;62.94
46223;BME280;31943;51.410;7.564;2022-12-18T08:56:30;101355.50;;;-3.38;62.09
46223;BME280;31943;51.410;7.564;2022-12-18T08:58:56;101352.06;;;-3.28;62.09
46223;BME280;31943;51.410;7.564;2022-12-18T09:01:22;101346.28;;;-3.26;62.14
46223;BME280;31943;51.410;7.564;2022-12-18T09:03:48;101348.09;;;-3.14;61.93
46223;BME280;31943;51.410;7.564;2022-12-18T09:06:14;101356.00;;;-3.01;61.64
46223;BME280;31943;51.410;7.564;2022-12-18T09:08:41;101360.41;;;-2.88;61.17
46223;BME280;31943;51.410;7.564;2022-12-18T09:11:12;101374.72;;;-2.70;60.48
46223;BME280;31943;51.410;7.564;2022-12-18T09:13:38;101368.28;;;-2.54;60.41
46223;BME280;31943;51.410;7.564;2022-12-18T09:16:04;101363.25;;;-2.43;60.27
46223;BME280;31943;51.410;7.564;2022-12-18T09:18:30;101350.69;;;-2.29;59.80
46223;BME280;31943;51.410;7.564;2022-12-18T09:20:55;101350.09;;;-2.15;57.86
46223;BME280;31943;51.410;7.564;2022-12-18T09:23:21;101341.97;;;-1.99;57.91
46223;BME280;31943;51.410;7.564;2022-12-18T09:25:48;101349.28;;;-1.82;57.88
46223;BME280;31943;51.410;7.564;2022-12-18T09:28:16;101342.78;;;-1.66;57.50
46223;BME280;31943;51.410;7.564;2022-12-18T09:30:43;101329.66;;;-1.59;57.13
46223;BME280;31943;51.410;7.564;2022-12-18T09:33:18;101330.81;;;-1.44;56.46
46223;BME280;31943;51.410;7.564;2022-12-18T09:35:44;101325.97;;;-1.29;56.25
46223;BME280;31943;51.410;7.564;2022-12-18T09:38:12;101331.09;;;-1.17;55.72
46223;BME280;31943;51.410;7.564;2022-12-18T09:40:42;101326.88;;;-1.16;55.67
46223;BME280;31943;51.410;7.564;2022-12-18T09:43:15;101330.00;;;-1.09;55.31
46223;BME280;31943;51.410;7.564;2022-12-18T09:45:45;101326.56;;;-0.97;55.09
46223;BME280;31943;51.410;7.564;2022-12-18T09:48:18;101320.91;;;-0.82;55.20
46223;BME280;31943;51.410;7.564;2022-12-18T09:50:44;101320.09;;;-0.69;55.12
46223;BME280;31943;51.410;7.564;2022-12-18T09:53:14;101313.19;;;-0.58;54.49
46223;BME280;31943;51.410;7.564;2022-12-18T09:55:42;101311.50;;;-0.46;53.93
46223;BME280;31943;51.410;7.564;2022-12-18T09:58:24;101321.31;;;-0.40;53.73
46223;BME280;31943;51.410;7.564;2022-12-18T10:00:52;101310.03;;;-0.30;52.49
46223;BME280;31943;51.410;7.564;2022-12-18T10:03:17;101309.69;;;-0.23;52.43
46223;BME280;31943;51.410;7.564;2022-12-18T10:05:52;101313.09;;;-0.11;52.31
46223;BME280;31943;51.410;7.564;2022-12-18T10:08:24;101324.91;;;-0.01;52.29
46223;BME280;31943;51.410;7.564;2022-12-18T10:10:58;101331.03;;;0.01;51.16
46223;BME280;31943;51.410;7.564;2022-12-18T10:13:31;101322.75;;;0.05;51.17
46223;BME280;31943;51.410;7.564;2022-12-18T10:16:06;101334.13;;;0.09;51.43
46223;BME280;31943;51.410;7.564;2022-12-18T10:18:50;101311.75;;;0.19;51.04
46223;BME280;31943;51.410;7.564;2022-12-18T10:21:24;101305.25;;;0.25;50.62
46223;BME280;31943;51.410;7.564;2022-12-18T10:23:58;101300.97;;;0.37;50.68
46223;BME280;31943;51.410;7.564;2022-12-18T10:26:26;101292.78;;;0.43;50.50
46223;BME280;31943;51.410;7.564;2022-12-18T10:28:53;101278.78;;;0.51;50.06
46223;BME280;31943;51.410;7.564;2022-12-18T10:31:22;101274.16;;;0.58;49.68
46223;BME280;31943;51.410;7.564;2022-12-18T10:33:48;101276.34;;;0.66;49.99
46223;BME280;31943;51.410;7.564;2022-12-18T10:36:14;101280.31;;;0.74;50.18
46223;BME280;31943;51.410;7.564;2022-12-18T10:38:39;101268.06;;;0.83;49.27
46223;BME280;31943;51.410;7.564;2022-12-18T10:41:16;101257.50;;;0.92;48.63
46223;BME280;31943;51.410;7.564;2022-12-18T10:43:48;101250.59;;;0.91;49.70
46223;BME280;31943;51.410;7.564;2022-12-18T10:46:35;101238.44;;;0.88;50.39
46223;BME280;31943;51.410;7.564;2022-12-18T10:49:01;101241.19;;;0.91;50.46
46223;BME280;31943;51.410;7.564;2022-12-18T10:51:28;101240.50;;;0.94;49.20
46223;BME280;31943;51.410;7.564;2022-12-18T10:53:56;101235.94;;;1.03;48.98
46223;BME280;31943;51.410;7.564;2022-12-18T10:56:24;101229.22;;;1.05;49.10
46223;BME280;31943;51.410;7.564;2022-12-18T10:58:56;101228.25;;;1.03;48.76
46223;BME280;31943;51.410;7.564;2022-12-18T11:01:22;101236.34;;;1.09;48.86
46223;BME280;31943;51.410;7.564;2022-12-18T11:04:00;101234.47;;;1.20;48.65
46223;BME280;31943;51.410;7.564;2022-12-18T11:06:26;101229.44;;;1.22;48.50
46223;BME280;31943;51.410;7.564;2022-12-18T11:08:58;101224.66;;;1.28;48.45
46223;BME280;31943;51.410;7.564;2022-12-18T11:11:24;101223.47;;;1.36;48.36
46223;BME280;31943;51.410;7.564;2022-12-18T11:13:57;101219.56;;;1.43;47.79
46223;BME280;31943;51.410;7.564;2022-12-18T11:16:23;101218.91;;;1.45;47.68
46223;BME280;31943;51.410;7.564;2022-12-18T11:18:49;101213.31;;;1.52;47.34
46223;BME280;31943;51.410;7.564;2022-12-18T11:21:20;101205.97;;;1.58;47.23
46223;BME280;31943;51.410;7.564;2022-12-18T11:23:48;101206.97;;;1.61;46.59
46223;BME280;31943;51.410;7.564;2022-12-18T11:26:19;101212.19;;;1.62;47.03
46223;BME280;31943;51.410;7.564;2022-12-18T11:28:47;101202.00;;;1.64;47.30
46223;BME280;31943;51.410;7.564;2022-12-18T11:31:22;101191.72;;;1.64;46.95
46223;BME280;31943;51.410;7.564;2022-12-18T11:34:00;101196.97;;;1.65;46.89
46223;BME280;31943;51.410;7.564;2022-12-18T11:36:33;101197.34;;;1.71;46.97
46223;BME280;31943;51.410;7.564;2022-12-18T11:39:05;101197.72;;;1.77;46.73
46223;BME280;31943;51.410;7.564;2022-12-18T11:41:38;101199.56;;;1.80;46.32
46223;BME280;31943;51.410;7.564;2022-12-18T11:44:08;101195.84;;;1.75;46.53
46223;BME280;31943;51.410;7.564;2022-12-18T11:46:38;101192.28;;;1.73;47.20
46223;BME280;31943;51.410;7.564;2022-12-18T11:49:14;101179.31;;;1.71;47.16
46223;BME280;31943;51.410;7.564;2022-12-18T11:51:45;101171.50;;;1.70;47.25
46223;BME280;31943;51.410;7.564;2022-12-18T11:54:14;101163.00;;;1.71;47.38
46223;BME280;31943;51.410;7.564;2022-12-18T11:56:44;101159.00;;;1.76;47.41
46223;BME280;31943;51.410;7.564;2022-12-18T11:59:18;101154.16;;;1.81;47.46
46223;BME280;31943;51.410;7.564;2022-12-18T12:01:51;101139.69;;;1.83;47.04
46223;BME280;31943;51.410;7.564;2022-12-18T12:04:39;101138.25;;;1.88;46.83
46223;BME280;31943;51.410;7.564;2022-12-18T12:07:19;101126.56;;;1.93;46.51
46223;BME280;31943;51.410;7.564;2022-12-18T12:09:51;101126.72;;;1.96;46.36
46223;BME280;31943;51.410;7.564;2022-12-18T12:12:31;101127.13;;;2.02;46.53
46223;BME280;31943;51.410;7.564;2022-12-18T12:15:05;101135.09;;;2.07;46.63
46223;BME280;31943;51.410;7.564;2022-12-18T12:17:42;101128.34;;;2.09;46.29
46223;BME280;31943;51.410;7.564;2022-12-18T12:20:15;101125.88;;;2.10;46.33
46223;BME280;31943;51.410;7.564;2022-12-18T12:22:54;101122.41;;;2.10;46.51
46223;BME280;31943;51.410;7.564;2022-12-18T12:25:36;101130.19;;;2.11;46.60
46223;BME280;31943;51.410;7.564;2022-12-18T12:28:14;101129.56;;;2.15;46.48
46223;BME280;31943;51.410;7.564;2022-12-18T12:30:55;101119.22;;;2.14;46.80
46223;BME280;31943;51.410;7.564;2022-12-18T12:33:35;101119.91;;;2.11;47.07
46223;BME280;31943;51.410;7.564;2022-12-18T12:36:10;101119.75;;;2.08;46.82
46223;BME280;31943;51.410;7.564;2022-12-18T12:38:44;101109.59;;;2.11;47.06
46223;BME280;31943;51.410;7.564;2022-12-18T12:41:12;101106.25;;;2.12;47.13
46223;BME280;31943;51.410;7.564;2022-12-18T12:43:42;101097.78;;;2.15;46.62
46223;BME280;31943;51.410;7.564;2022-12-18T12:46:11;101098.09;;;2.20;46.93
46223;BME280;31943;51.410;7.564;2022-12-18T12:48:42;101091.16;;;2.18;46.91
46223;BME280;31943;51.410;7.564;2022-12-18T12:51:14;101086.78;;;2.17;46.94
46223;BME280;31943;51.410;7.564;2022-12-18T12:53:44;101085.28;;;2.21;46.49
46223;BME280;31943;51.410;7.564;2022-12-18T12:56:12;101081.28;;;2.26;46.80
46223;BME280;31943;51.410;7.564;2022-12-18T12:58:46;101080.66;;;2.30;46.88